createdAt,value
2022-08-19T00:01:59.328Z,33.23
2022-08-19T00:04:29.590Z,33.12
2022-08-19T00:06:56.196Z,33.12
2022-08-19T00:09:23.605Z,33.10
2022-08-19T00:11:50.328Z,33.08
2022-08-19T00:14:17.355Z,33.06
2022-08-19T00:16:44.953Z,33.03
2022-08-19T00:19:11.598Z,33.01
2022-08-19T00:21:40.778Z,33.01
2022-08-19T00:24:11.339Z,33.03
2022-08-19T00:26:38.105Z,32.97
2022-08-19T00:29:05.504Z,32.88
2022-08-19T00:31:32.480Z,32.95
2022-08-19T00:33:59.155Z,32.81
2022-08-19T00:36:25.798Z,32.80
2022-08-19T00:38:53.382Z,32.85
2022-08-19T00:41:22.193Z,32.75
2022-08-19T00:44:01.745Z,32.72
2022-08-19T00:46:28.596Z,32.75
2022-08-19T00:48:55.215Z,32.75
2022-08-19T00:51:23.219Z,32.70
2022-08-19T00:53:49.855Z,32.66
2022-08-19T00:56:17.505Z,32.65
2022-08-19T00:58:44.283Z,32.68
2022-08-19T01:01:11.070Z,32.56
2022-08-19T01:03:57.233Z,32.62
2022-08-19T01:06:24.903Z,32.64
2022-08-19T01:08:51.719Z,32.55
2022-08-19T01:11:18.365Z,32.55
2022-08-19T01:13:49.116Z,32.54
2022-08-19T01:16:17.511Z,32.46
2022-08-19T01:18:44.092Z,32.46
2022-08-19T01:21:22.124Z,32.39
2022-08-19T01:23:48.806Z,32.36
2022-08-19T01:26:17.601Z,32.32
2022-08-19T01:28:45.828Z,32.34
2022-08-19T01:31:26.761Z,32.31
2022-08-19T01:33:55.501Z,32.26
2022-08-19T01:36:26.555Z,32.24
2022-08-19T01:38:53.377Z,32.19
2022-08-19T01:41:19.987Z,32.18
2022-08-19T01:44:09.746Z,32.16
2022-08-19T01:46:33.291Z,32.19
2022-08-19T01:48:59.905Z,32.14
2022-08-19T01:51:26.914Z,32.09
2022-08-19T01:53:54.143Z,32.09
2022-08-19T01:56:20.781Z,32.18
2022-08-19T01:58:52.743Z,32.19
2022-08-19T02:01:19.726Z,32.14
2022-08-19T02:03:46.958Z,32.07
2022-08-19T02:06:13.551Z,32.02
2022-08-19T02:08:40.879Z,31.99
2022-08-19T02:11:07.673Z,31.92
2022-08-19T02:13:34.631Z,31.93
2022-08-19T02:16:01.236Z,31.85
2022-08-19T02:18:30.991Z,31.91
2022-08-19T02:20:57.647Z,31.88
2022-08-19T02:23:24.230Z,31.89
2022-08-19T02:25:50.838Z,31.83
2022-08-19T02:28:18.952Z,31.77
2022-08-19T02:30:46.047Z,31.73
2022-08-19T02:33:12.611Z,31.72
2022-08-19T02:35:43.263Z,31.69
2022-08-19T02:38:28.015Z,31.66
2022-08-19T02:41:03.765Z,31.55
2022-08-19T02:43:32.231Z,31.47
2022-08-19T02:46:01.630Z,31.44
2022-08-19T02:48:28.215Z,31.47
2022-08-19T02:50:56.423Z,31.50
2022-08-19T02:53:24.239Z,31.43
2022-08-19T02:55:51.314Z,31.38
2022-08-19T02:58:18.033Z,31.37
2022-08-19T03:00:51.607Z,31.34
2022-08-19T03:03:18.558Z,31.41
2022-08-19T03:05:48.214Z,31.35
2022-08-19T03:08:22.984Z,31.29
2022-08-19T03:10:49.711Z,31.31
2022-08-19T03:13:17.962Z,31.22
2022-08-19T03:15:45.900Z,31.27
2022-08-19T03:18:12.554Z,31.22
2022-08-19T03:20:47.243Z,31.18
2022-08-19T03:23:14.134Z,31.13
2022-08-19T03:25:43.014Z,31.13
2022-08-19T03:28:11.030Z,31.06
2022-08-19T03:30:37.636Z,31.06
2022-08-19T03:33:09.239Z,31.08
2022-08-19T03:35:37.670Z,31.00
2022-08-19T03:38:05.367Z,31.06
2022-08-19T03:40:32.113Z,31.04
2022-08-19T03:42:58.760Z,30.97
2022-08-19T03:45:25.351Z,30.95
2022-08-19T03:47:51.977Z,30.96
2022-08-19T03:50:20.167Z,30.88
2022-08-19T03:52:53.279Z,30.94
2022-08-19T03:55:20.233Z,30.92
2022-08-19T03:57:48.623Z,30.90
2022-08-19T04:00:16.101Z,30.86
2022-08-19T04:02:56.334Z,30.84
2022-08-19T04:05:27.906Z,30.81
2022-08-19T04:07:55.059Z,30.83
2022-08-19T04:10:21.656Z,30.71
2022-08-19T04:12:48.261Z,30.84
2022-08-19T04:15:16.440Z,30.87
2022-08-19T04:17:43.065Z,30.81
2022-08-19T04:20:09.786Z,30.90
2022-08-19T04:22:36.354Z,30.97
2022-08-19T04:25:03.003Z,30.92
2022-08-19T04:27:30.331Z,30.87
2022-08-19T04:29:56.951Z,30.91
2022-08-19T04:32:23.665Z,30.99
2022-08-19T04:35:02.155Z,30.84
2022-08-19T04:37:37.035Z,31.01
2022-08-19T04:40:24.699Z,30.96
2022-08-19T04:42:51.358Z,31.04
2022-08-19T04:45:18.016Z,31.14
2022-08-19T04:47:49.133Z,31.23
2022-08-19T04:50:26.587Z,31.29
2022-08-19T04:52:53.480Z,31.19
2022-08-19T04:55:20.304Z,31.28
2022-08-19T04:57:46.887Z,31.38
2022-08-19T05:00:13.746Z,31.49
2022-08-19T05:02:40.373Z,31.51
2022-08-19T05:05:07.588Z,31.38
2022-08-19T05:07:34.498Z,31.49
2022-08-19T05:10:01.154Z,31.55
2022-08-19T05:12:29.802Z,31.58
2022-08-19T05:14:58.088Z,31.69
2022-08-19T05:17:30.285Z,31.75
2022-08-19T05:20:18.687Z,31.83
2022-08-19T05:22:45.677Z,31.90
2022-08-19T05:25:14.829Z,31.98
2022-08-19T05:27:42.199Z,31.98
2022-08-19T05:30:09.304Z,32.14
2022-08-19T05:32:35.946Z,32.19
2022-08-19T05:35:02.568Z,32.38
2022-08-19T05:37:29.195Z,32.35
2022-08-19T05:39:56.124Z,32.52
2022-08-19T05:42:23.987Z,32.67
2022-08-19T05:44:50.851Z,32.83
2022-08-19T05:47:17.628Z,32.87
2022-08-19T05:49:44.278Z,33.02
2022-08-19T05:52:12.455Z,33.01
2022-08-19T05:54:42.413Z,33.23
2022-08-19T05:57:09.453Z,32.97
2022-08-19T05:59:39.331Z,33.43
2022-08-19T06:02:06.166Z,33.43
2022-08-19T06:04:32.803Z,33.41
2022-08-19T06:06:59.377Z,33.81
2022-08-19T06:09:26.104Z,34.11
2022-08-19T06:12:00.892Z,34.25
2022-08-19T06:14:30.959Z,34.27
2022-08-19T06:17:06.786Z,34.32
2022-08-19T06:19:34.096Z,34.24
2022-08-19T06:22:00.970Z,34.77
2022-08-19T06:24:29.521Z,35.21
2022-08-19T06:27:00.795Z,35.57
2022-08-19T06:29:28.574Z,35.65
2022-08-19T06:31:57.144Z,35.56
2022-08-19T06:34:23.751Z,35.36
2022-08-19T06:36:51.531Z,35.38
2022-08-19T06:39:22.699Z,35.90
2022-08-19T06:41:52.466Z,36.09
2022-08-19T06:44:22.670Z,35.95
2022-08-19T06:46:54.885Z,36.51
2022-08-19T06:49:22.809Z,36.92
2022-08-19T06:51:49.522Z,37.17
2022-08-19T06:54:20.102Z,37.45
2022-08-19T06:56:47.239Z,37.94
2022-08-19T06:59:18.749Z,38.10
2022-08-19T07:01:50.742Z,38.29
2022-08-19T07:04:22.147Z,38.98
2022-08-19T07:06:55.129Z,39.51
2022-08-19T07:09:22.175Z,39.50
2022-08-19T07:11:51.560Z,39.76
2022-08-19T07:14:19.991Z,40.36
2022-08-19T07:16:47.727Z,40.59
2022-08-19T07:19:16.117Z,40.75
2022-08-19T07:21:43.040Z,40.96
2022-08-19T07:24:09.707Z,41.09
2022-08-19T07:26:40.561Z,41.47
2022-08-19T07:29:08.873Z,41.56
2022-08-19T07:31:37.619Z,41.51
2022-08-19T07:34:08.975Z,41.04
2022-08-19T07:36:37.261Z,41.41
2022-08-19T07:39:06.927Z,41.23
2022-08-19T07:41:33.595Z,41.39
2022-08-19T07:44:04.448Z,40.63
2022-08-19T07:46:32.551Z,41.24
2022-08-19T07:48:59.189Z,41.45
2022-08-19T07:51:29.541Z,41.54
2022-08-19T07:54:03.790Z,41.59
2022-08-19T07:56:30.460Z,42.29
2022-08-19T08:01:28.919Z,42.33
2022-08-19T08:04:15.072Z,42.55
2022-08-19T08:07:00.332Z,43.18
2022-08-19T08:09:29.791Z,42.92
2022-08-19T08:12:32.911Z,43.19
2022-08-19T08:14:59.850Z,43.95
2022-08-19T08:17:31.146Z,44.00
2022-08-19T08:20:14.556Z,44.47
2022-08-19T08:23:03.671Z,44.57
2022-08-19T08:25:32.540Z,44.56
2022-08-19T08:28:01.203Z,44.11
2022-08-19T08:30:32.575Z,43.60
2022-08-19T08:32:59.635Z,44.12
2022-08-19T08:35:26.352Z,44.11
2022-08-19T08:37:54.531Z,44.45
2022-08-19T08:40:42.793Z,44.55
2022-08-19T08:43:27.758Z,43.70
2022-08-19T08:46:16.302Z,44.42
2022-08-19T08:49:26.355Z,43.99
2022-08-19T08:52:06.231Z,44.63
2022-08-19T08:54:40.681Z,45.42
2022-08-19T08:57:40.659Z,46.11
2022-08-19T09:00:15.186Z,46.27
2022-08-19T09:02:43.358Z,46.04
2022-08-19T09:05:11.128Z,46.86
2022-08-19T09:07:49.144Z,46.79
2022-08-19T09:10:30.823Z,46.65
2022-08-19T09:13:09.248Z,47.73
2022-08-19T09:15:39.401Z,47.39
2022-08-19T09:18:07.451Z,47.88
2022-08-19T09:20:34.147Z,47.93
2022-08-19T09:23:00.730Z,47.29
2022-08-19T09:25:29.591Z,47.43
2022-08-19T09:28:02.565Z,47.62
2022-08-19T09:30:31.880Z,47.94
2022-08-19T09:32:59.235Z,47.55
2022-08-19T09:35:29.725Z,48.06
2022-08-19T09:37:59.400Z,47.80
2022-08-19T09:40:30.089Z,48.15
2022-08-19T09:42:58.176Z,49.06
2022-08-19T09:45:24.986Z,48.48
2022-08-19T09:47:54.096Z,49.34
2022-08-19T09:50:21.725Z,49.03
2022-08-19T09:52:57.168Z,48.64
2022-08-19T09:55:31.532Z,48.97
2022-08-19T09:58:00.033Z,48.86
2022-08-19T10:00:27.762Z,48.26
2022-08-19T10:02:54.379Z,48.50
2022-08-19T10:05:42.371Z,48.29
2022-08-19T10:08:13.404Z,48.44
2022-08-19T10:10:44.126Z,49.09
2022-08-19T10:13:13.310Z,48.50
2022-08-19T10:15:47.157Z,48.80
2022-08-19T10:18:15.495Z,48.98
2022-08-19T10:20:43.311Z,48.80
2022-08-19T10:23:10.312Z,48.56
2022-08-19T10:25:38.334Z,49.13
2022-08-19T10:28:10.555Z,49.45
2022-08-19T10:30:37.427Z,49.11
2022-08-19T10:33:08.547Z,48.73
2022-08-19T10:35:56.666Z,49.19
2022-08-19T10:38:30.618Z,48.46
2022-08-19T10:40:59.512Z,48.19
2022-08-19T10:43:26.315Z,48.31
2022-08-19T10:45:56.396Z,47.62
2022-08-19T10:48:23.023Z,47.13
2022-08-19T10:51:08.099Z,46.66
2022-08-19T10:53:34.761Z,46.70
2022-08-19T10:56:21.049Z,46.56
2022-08-19T10:58:47.677Z,47.08
2022-08-19T11:01:14.332Z,46.55
2022-08-19T11:03:40.951Z,46.64
2022-08-19T11:06:08.412Z,46.70
2022-08-19T11:08:35.920Z,47.01
2022-08-19T11:11:04.157Z,47.09
2022-08-19T11:13:34.975Z,46.49
2022-08-19T11:16:07.382Z,46.50
2022-08-19T11:18:38.719Z,46.41
2022-08-19T11:21:18.239Z,46.25
2022-08-19T11:23:45.115Z,46.36
2022-08-19T11:26:11.815Z,46.68
2022-08-19T11:28:38.429Z,46.56
2022-08-19T11:31:05.523Z,46.56
2022-08-19T11:33:32.543Z,46.71
2022-08-19T11:36:02.530Z,46.16
2022-08-19T11:38:29.200Z,46.35
2022-08-19T11:41:03.049Z,46.17
2022-08-19T11:43:34.295Z,45.98
2022-08-19T11:46:10.919Z,46.22
2022-08-19T11:48:37.592Z,46.36
2022-08-19T11:51:07.163Z,46.09
2022-08-19T11:53:34.168Z,45.80
2022-08-19T11:56:00.752Z,45.55
2022-08-19T11:58:27.446Z,45.45
2022-08-19T12:00:54.036Z,45.47
2022-08-19T12:03:20.675Z,45.20
2022-08-19T12:05:47.369Z,45.40
2022-08-19T12:08:14.269Z,45.35
2022-08-19T12:10:41.889Z,45.21
2022-08-19T12:13:08.575Z,45.60
2022-08-19T12:15:38.974Z,45.00
2022-08-19T12:18:05.880Z,45.15
2022-08-19T12:20:32.483Z,44.79
2022-08-19T12:23:03.514Z,44.58
2022-08-19T12:25:30.173Z,44.69
2022-08-19T12:27:57.561Z,44.88
2022-08-19T12:30:24.453Z,44.85
2022-08-19T12:32:52.233Z,44.73
2022-08-19T12:35:20.932Z,43.96
2022-08-19T12:37:57.185Z,43.60
2022-08-19T12:40:24.267Z,43.89
2022-08-19T12:42:53.683Z,44.04
2022-08-19T12:45:20.275Z,43.73
2022-08-19T12:47:47.843Z,43.74
2022-08-19T12:50:16.281Z,43.69
2022-08-19T12:52:43.410Z,43.64
2022-08-19T12:55:10.514Z,43.49
2022-08-19T12:57:37.123Z,43.81
2022-08-19T13:00:14.588Z,44.02
2022-08-19T13:02:42.675Z,44.22
2022-08-19T13:05:10.180Z,44.23
2022-08-19T13:07:38.796Z,44.35
2022-08-19T13:10:07.327Z,44.09
2022-08-19T13:12:33.922Z,43.64
2022-08-19T13:15:00.537Z,43.83
2022-08-19T13:17:28.030Z,43.82
2022-08-19T13:19:54.651Z,43.84
2022-08-19T13:22:21.226Z,44.22
2022-08-19T13:24:47.879Z,43.57
2022-08-19T13:27:14.847Z,43.66
2022-08-19T13:30:01.070Z,43.74
2022-08-19T13:32:46.885Z,43.57
2022-08-19T13:35:16.974Z,43.59
2022-08-19T13:37:44.167Z,43.62
2022-08-19T13:40:18.108Z,43.40
2022-08-19T13:42:48.089Z,42.71
2022-08-19T13:45:19.063Z,42.76
2022-08-19T13:47:47.289Z,43.05
2022-08-19T13:50:15.694Z,42.82
2022-08-19T13:52:42.449Z,42.87
2022-08-19T13:55:09.918Z,42.83
2022-08-19T13:57:37.050Z,42.52
2022-08-19T14:00:04.974Z,42.26
2022-08-19T14:02:31.650Z,42.67
2022-08-19T14:04:59.331Z,42.74
2022-08-19T14:07:26.445Z,42.87
2022-08-19T14:09:53.031Z,42.71
2022-08-19T14:12:28.664Z,41.61
2022-08-19T14:14:55.894Z,41.05
2022-08-19T14:17:22.554Z,40.84
2022-08-19T14:19:49.158Z,40.75
2022-08-19T14:22:15.820Z,40.88
2022-08-19T14:24:49.273Z,40.53
2022-08-19T14:27:15.897Z,40.26
2022-08-19T14:29:42.507Z,40.50
2022-08-19T14:32:11.099Z,40.15
2022-08-19T14:34:43.538Z,40.19
2022-08-19T14:37:13.065Z,40.28
2022-08-19T14:39:44.330Z,40.20
2022-08-19T14:42:11.595Z,40.06
2022-08-19T14:44:38.479Z,40.16
2022-08-19T14:47:05.265Z,40.31
2022-08-19T14:49:35.037Z,40.36
2022-08-19T14:52:04.079Z,40.23
2022-08-19T14:54:31.079Z,39.99
2022-08-19T14:56:57.715Z,39.51
2022-08-19T14:59:24.340Z,39.48
2022-08-19T15:01:51.070Z,39.27
2022-08-19T15:04:17.766Z,39.11
2022-08-19T15:06:44.423Z,38.93
2022-08-19T15:09:11.125Z,38.83
2022-08-19T15:11:38.084Z,38.69
2022-08-19T15:14:06.287Z,38.68
2022-08-19T15:16:33.061Z,38.60
2022-08-19T15:19:00.722Z,38.59
2022-08-19T15:21:27.710Z,38.43
2022-08-19T15:23:55.476Z,38.44
2022-08-19T15:26:22.097Z,38.62
2022-08-19T15:28:48.749Z,38.52
2022-08-19T15:31:25.580Z,38.52
2022-08-19T15:33:59.171Z,38.52
2022-08-19T15:36:26.616Z,38.28
2022-08-19T15:38:53.409Z,38.30
2022-08-19T15:41:24.912Z,38.30
2022-08-19T15:43:59.853Z,38.27
2022-08-19T15:46:28.265Z,38.01
2022-08-19T15:48:57.183Z,38.15
2022-08-19T15:51:28.414Z,38.15
2022-08-19T15:53:55.326Z,38.16
2022-08-19T15:56:25.520Z,38.10
2022-08-19T15:59:12.193Z,37.88
2022-08-19T16:01:57.687Z,37.81
2022-08-19T16:04:43.273Z,37.84
2022-08-19T16:07:10.304Z,37.82
2022-08-19T16:09:36.969Z,37.80
2022-08-19T16:12:04.974Z,37.83
2022-08-19T16:14:33.175Z,37.68
2022-08-19T16:16:59.901Z,37.67
2022-08-19T16:19:26.521Z,37.66
2022-08-19T16:21:53.951Z,37.66
2022-08-19T16:24:23.162Z,37.28
2022-08-19T16:26:49.798Z,37.44
2022-08-19T16:29:33.418Z,37.45
2022-08-19T16:32:05.087Z,37.42
2022-08-19T16:34:31.735Z,37.07
2022-08-19T16:37:00.083Z,37.13
2022-08-19T16:39:26.962Z,37.23
2022-08-19T16:41:53.794Z,37.19
2022-08-19T16:44:20.972Z,37.18
2022-08-19T16:46:50.700Z,36.78
2022-08-19T16:49:53.241Z,36.79
2022-08-19T16:52:14.797Z,36.86
2022-08-19T16:54:41.746Z,36.80
2022-08-19T16:57:11.765Z,36.87
2022-08-19T16:59:39.474Z,36.69
2022-08-19T17:02:15.131Z,36.59
2022-08-19T17:04:41.821Z,36.63
2022-08-19T17:07:09.825Z,36.60
2022-08-19T17:09:36.701Z,36.53
2022-08-19T17:12:04.950Z,36.46
2022-08-19T17:14:31.570Z,36.51
2022-08-19T17:16:58.210Z,36.50
2022-08-19T17:19:24.790Z,36.38
2022-08-19T17:21:51.815Z,36.32
2022-08-19T17:24:18.396Z,36.44
2022-08-19T17:26:45.081Z,36.18
2022-08-19T17:29:11.684Z,36.05
2022-08-19T17:31:38.419Z,35.99
2022-08-19T17:34:05.356Z,35.91
2022-08-19T17:36:34.071Z,35.80
2022-08-19T17:39:01.153Z,35.59
2022-08-19T17:41:28.075Z,35.50
2022-08-19T17:43:54.723Z,35.56
2022-08-19T17:46:21.389Z,35.46
2022-08-19T17:48:52.853Z,35.25
2022-08-19T17:51:42.170Z,35.12
2022-08-19T17:54:15.267Z,35.01
2022-08-19T17:56:42.334Z,35.10
2022-08-19T17:59:11.771Z,35.10
2022-08-19T18:01:52.522Z,35.04
2022-08-19T18:04:21.671Z,35.09
2022-08-19T18:06:52.992Z,35.01
2022-08-19T18:09:24.788Z,34.88
2022-08-19T18:11:53.321Z,34.90
2022-08-19T18:14:33.282Z,34.86
2022-08-19T18:17:09.036Z,34.85
2022-08-19T18:19:41.910Z,34.92
2022-08-19T18:22:20.551Z,34.49
2022-08-19T18:24:47.154Z,34.26
2022-08-19T18:27:14.170Z,34.03
2022-08-19T18:29:40.852Z,33.88
2022-08-19T18:32:13.864Z,33.95
2022-08-19T18:34:41.505Z,33.91
2022-08-19T18:37:08.125Z,33.70
2022-08-19T18:39:53.411Z,33.51
2022-08-19T18:42:38.727Z,33.27
2022-08-19T18:45:26.509Z,32.98
2022-08-19T18:48:26.358Z,32.63
2022-08-19T18:50:55.102Z,32.63
2022-08-19T18:53:21.735Z,31.97
2022-08-19T18:55:53.989Z,31.72
2022-08-19T18:58:26.178Z,31.30
2022-08-19T19:00:56.910Z,31.26
2022-08-19T19:03:24.589Z,30.95
2022-08-19T19:05:52.736Z,31.08
2022-08-19T19:08:19.396Z,31.31
2022-08-19T19:10:46.052Z,31.04
2022-08-19T19:13:16.352Z,31.10
2022-08-19T19:15:43.947Z,30.83
2022-08-19T19:18:13.473Z,31.27
2022-08-19T19:20:40.880Z,31.38
2022-08-19T19:23:07.671Z,31.54
2022-08-19T19:25:49.789Z,31.57
2022-08-19T19:28:25.580Z,31.71
2022-08-19T19:30:53.547Z,31.72
2022-08-19T19:33:20.239Z,31.57
2022-08-19T19:35:47.231Z,31.37
2022-08-19T19:38:13.973Z,31.48
2022-08-19T19:40:40.598Z,31.37
2022-08-19T19:43:07.347Z,30.96
2022-08-19T19:45:34.126Z,31.20
2022-08-19T19:48:00.703Z,31.36
2022-08-19T19:50:30.204Z,31.51
2022-08-19T19:52:57.022Z,31.48
2022-08-19T19:55:26.872Z,31.67
2022-08-19T19:57:54.029Z,31.54
2022-08-19T20:00:21.311Z,31.38
2022-08-19T20:02:50.456Z,31.40
2022-08-19T20:05:20.790Z,31.52
2022-08-19T20:08:05.886Z,31.24
2022-08-19T20:10:32.722Z,31.36
2022-08-19T20:13:01.542Z,31.23
2022-08-19T20:15:28.682Z,30.12
2022-08-19T20:17:55.407Z,30.03
2022-08-19T20:20:22.084Z,30.06
2022-08-19T20:22:48.747Z,29.70
2022-08-19T20:25:15.915Z,29.57
2022-08-19T20:27:42.542Z,28.93
2022-08-19T20:30:19.179Z,28.58
2022-08-19T20:32:46.984Z,28.40
2022-08-19T20:35:14.617Z,27.94
2022-08-19T20:37:41.591Z,27.53
2022-08-19T20:40:13.136Z,27.67
2022-08-19T20:42:40.591Z,27.34
2022-08-19T20:45:21.549Z,27.65
2022-08-19T20:47:58.276Z,27.29
2022-08-19T20:50:26.137Z,26.92
2022-08-19T20:52:56.677Z,26.90
2022-08-19T20:55:23.338Z,26.94
2022-08-19T20:57:49.955Z,26.92
2022-08-19T21:00:16.427Z,27.11
2022-08-19T21:02:43.036Z,26.85
2022-08-19T21:05:09.482Z,27.00
2022-08-19T21:07:39.551Z,26.92
2022-08-19T21:10:07.150Z,26.98
2022-08-19T21:12:33.816Z,27.12
2022-08-19T21:15:00.419Z,27.53
2022-08-19T21:17:26.836Z,27.58
2022-08-19T21:19:53.456Z,27.81
2022-08-19T21:22:20.076Z,27.84
2022-08-19T21:24:46.684Z,27.83
2022-08-19T21:27:13.324Z,28.03
2022-08-19T21:29:40.571Z,28.17
2022-08-19T21:32:07.594Z,28.29
2022-08-19T21:34:34.283Z,28.45
2022-08-19T21:37:00.851Z,28.52
2022-08-19T21:39:27.284Z,28.60
2022-08-19T21:41:54.390Z,28.62
2022-08-19T21:44:21.130Z,28.65
2022-08-19T21:46:50.579Z,28.66
2022-08-19T21:49:17.416Z,28.69
2022-08-19T21:51:44.203Z,28.74
2022-08-19T21:54:14.242Z,28.75
2022-08-19T21:56:41.181Z,28.82
2022-08-19T21:59:07.900Z,28.82
2022-08-19T22:01:34.580Z,28.67
2022-08-19T22:04:01.197Z,28.77
2022-08-19T22:06:27.801Z,28.55
2022-08-19T22:08:55.460Z,28.71
2022-08-19T22:11:25.395Z,28.83
2022-08-19T22:13:56.013Z,28.77
2022-08-19T22:16:23.605Z,28.75
2022-08-19T22:18:50.788Z,28.71
2022-08-19T22:21:29.367Z,28.58
2022-08-19T22:24:07.564Z,28.42
2022-08-19T22:26:34.170Z,28.40
2022-08-19T22:29:00.806Z,28.59
2022-08-19T22:31:28.689Z,28.64
2022-08-19T22:33:55.875Z,28.50
2022-08-19T22:36:22.545Z,28.75
2022-08-19T22:38:49.138Z,28.73
2022-08-19T22:41:16.308Z,28.80
2022-08-19T22:43:43.535Z,28.68
2022-08-19T22:46:17.587Z,28.54
2022-08-19T22:48:44.442Z,28.59
2022-08-19T22:51:29.819Z,28.71
2022-08-19T22:53:57.244Z,28.76
2022-08-19T22:56:23.838Z,28.70
2022-08-19T22:58:50.752Z,28.71
2022-08-19T23:01:24.907Z,28.75
2022-08-19T23:03:57.408Z,28.70
2022-08-19T23:06:33.307Z,28.62
2022-08-19T23:09:00.772Z,28.68
2022-08-19T23:11:27.382Z,28.67
2022-08-19T23:13:53.997Z,28.59
2022-08-19T23:16:20.719Z,28.55
2022-08-19T23:18:48.138Z,28.75
2022-08-19T23:21:14.932Z,28.81
2022-08-19T23:23:41.567Z,28.73
2022-08-19T23:26:11.742Z,28.75
2022-08-19T23:28:57.129Z,28.80
2022-08-19T23:31:26.023Z,28.80
2022-08-19T23:33:53.205Z,28.67
2022-08-19T23:36:20.231Z,28.59
2022-08-19T23:38:48.047Z,28.58
2022-08-19T23:41:15.380Z,28.63
2022-08-19T23:43:42.107Z,28.52
2022-08-19T23:46:10.732Z,28.44
2022-08-19T23:48:37.935Z,28.56
2022-08-19T23:51:06.301Z,28.59
2022-08-19T23:53:33.045Z,28.60
2022-08-19T23:55:59.693Z,28.57
2022-08-19T23:58:30.020Z,28.50
